AirportContent of METAR report
LYBEMETAR LYBE 100600Z 28007KT 4000 BR SCT005 BKN033 06/05 Q1010 TEMPO BKN005=
LYBTMETAR LYBT 100600Z 34008KT 4000 BR BKN007 06/06 Q1010 NOSIG=
LYKVMETAR LYKV 100600Z 14003KT 120V220 3000 -RA BR OVC063 04/04 Q1010 NOSIG=
LYNIMETAR LYNI 100600Z VRB02KT CAVOK 02/02 Q1011 NOSIG=
LYVRMETAR LYVR 100600Z VRB03KT 9999 BKN040 10/01 Q1010 NOSIG=
LYUZMETAR LYUZ 100600Z 33005KT 290V020 9999 -RA SCT022 BKN060 04/02 Q1009=
LYPGMETAR LYPG 100600Z VRB02KT 8000 -RA FEW027 BKN040 OVC070 09/09 Q1009 RERA NOSIG=
LYTVMETAR LYTV 100600Z VRB05KT 9999 -RA FEW030TCU SCT040 BKN080 10/09 Q1007 RETS TEMPO 5000 TSRA FEW027CB SCT033 BKN040=

Data loaded: 2019-12-10 06:19:46 UTC

METAR, TAF, AIRMET, GAMET, SIGMET

Important note: MET information on these web pages are informative and restricted to aeronautical users, must not be used for any commercial purpose, and do not replace flight documentation.